sensor_id;sensor_type;location;lat;lon;timestamp;temperature;humidity
21678;DHT22;11000;50.360;7.582;2023-05-07T00:01:54;15.00;99.90
21678;DHT22;11000;50.360;7.582;2023-05-07T00:04:14;15.00;99.90
21678;DHT22;11000;50.360;7.582;2023-05-07T00:06:35;15.00;99.90
21678;DHT22;11000;50.360;7.582;2023-05-07T00:08:59;15.00;99.90
21678;DHT22;11000;50.360;7.582;2023-05-07T00:11:21;15.00;99.90
21678;DHT22;11000;50.360;7.582;2023-05-07T00:13:41;15.10;99.90
21678;DHT22;11000;50.360;7.582;2023-05-07T00:16:02;15.10;99.90
21678;DHT22;11000;50.360;7.582;2023-05-07T00:18:23;15.10;99.90
21678;DHT22;11000;50.360;7.582;2023-05-07T00:20:43;15.10;99.90
21678;DHT22;11000;50.360;7.582;2023-05-07T00:23:04;15.00;99.90
21678;DHT22;11000;50.360;7.582;2023-05-07T00:25:24;15.00;99.90
21678;DHT22;11000;50.360;7.582;2023-05-07T00:27:45;15.00;99.90
21678;DHT22;11000;50.360;7.582;2023-05-07T00:30:07;15.00;99.90
21678;DHT22;11000;50.360;7.582;2023-05-07T00:32:28;15.00;99.90
21678;DHT22;11000;50.360;7.582;2023-05-07T00:34:49;15.00;99.90
21678;DHT22;11000;50.360;7.582;2023-05-07T00:37:11;14.90;99.90
21678;DHT22;11000;50.360;7.582;2023-05-07T00:39:32;14.90;99.90
21678;DHT22;11000;50.360;7.582;2023-05-07T00:41:52;14.80;99.90
21678;DHT22;11000;50.360;7.582;2023-05-07T00:44:13;14.80;99.90
21678;DHT22;11000;50.360;7.582;2023-05-07T00:46:34;14.80;99.90
21678;DHT22;11000;50.360;7.582;2023-05-07T00:48:55;14.80;99.90
21678;DHT22;11000;50.360;7.582;2023-05-07T00:51:16;14.80;99.90
21678;DHT22;11000;50.360;7.582;2023-05-07T00:53:38;14.80;99.90
21678;DHT22;11000;50.360;7.582;2023-05-07T00:55:59;14.80;99.90
21678;DHT22;11000;50.360;7.582;2023-05-07T00:58:21;14.80;99.90
21678;DHT22;11000;50.360;7.582;2023-05-07T01:00:41;14.70;99.90
21678;DHT22;11000;50.360;7.582;2023-05-07T01:03:02;14.70;99.90
21678;DHT22;11000;50.360;7.582;2023-05-07T01:05:24;14.70;99.90
21678;DHT22;11000;50.360;7.582;2023-05-07T01:07:45;14.60;99.90
21678;DHT22;11000;50.360;7.582;2023-05-07T01:10:07;14.60;99.90
21678;DHT22;11000;50.360;7.582;2023-05-07T01:12:29;14.60;99.90
21678;DHT22;11000;50.360;7.582;2023-05-07T01:14:51;14.60;99.90
21678;DHT22;11000;50.360;7.582;2023-05-07T01:17:12;14.50;99.90
21678;DHT22;11000;50.360;7.582;2023-05-07T01:19:32;14.50;99.90
21678;DHT22;11000;50.360;7.582;2023-05-07T01:21:59;14.50;99.90
21678;DHT22;11000;50.360;7.582;2023-05-07T01:24:21;14.50;99.90
21678;DHT22;11000;50.360;7.582;2023-05-07T01:26:43;14.60;99.90
21678;DHT22;11000;50.360;7.582;2023-05-07T01:29:04;14.60;99.90
21678;DHT22;11000;50.360;7.582;2023-05-07T01:31:25;14.60;99.90
21678;DHT22;11000;50.360;7.582;2023-05-07T01:33:46;14.60;99.90
21678;DHT22;11000;50.360;7.582;2023-05-07T01:36:09;14.60;99.90
21678;DHT22;11000;50.360;7.582;2023-05-07T01:38:30;14.70;99.90
21678;DHT22;11000;50.360;7.582;2023-05-07T01:40:51;14.70;99.90
21678;DHT22;11000;50.360;7.582;2023-05-07T01:43:12;14.70;99.90
21678;DHT22;11000;50.360;7.582;2023-05-07T01:45:34;14.70;99.90
21678;DHT22;11000;50.360;7.582;2023-05-07T01:47:55;14.70;99.90
21678;DHT22;11000;50.360;7.582;2023-05-07T01:50:17;14.70;99.90
21678;DHT22;11000;50.360;7.582;2023-05-07T01:52:38;14.70;99.90
21678;DHT22;11000;50.360;7.582;2023-05-07T01:54:59;14.70;99.90
21678;DHT22;11000;50.360;7.582;2023-05-07T01:57:19;14.70;99.90
21678;DHT22;11000;50.360;7.582;2023-05-07T01:59:40;14.70;99.90
21678;DHT22;11000;50.360;7.582;2023-05-07T02:02:00;14.70;99.90
21678;DHT22;11000;50.360;7.582;2023-05-07T02:04:21;14.60;99.90
21678;DHT22;11000;50.360;7.582;2023-05-07T02:06:41;14.70;99.90
21678;DHT22;11000;50.360;7.582;2023-05-07T02:09:02;14.70;99.90
21678;DHT22;11000;50.360;7.582;2023-05-07T02:11:22;14.70;99.90
21678;DHT22;11000;50.360;7.582;2023-05-07T02:13:43;14.70;99.90
21678;DHT22;11000;50.360;7.582;2023-05-07T02:16:04;14.70;99.90
21678;DHT22;11000;50.360;7.582;2023-05-07T02:18:24;14.70;99.90
21678;DHT22;11000;50.360;7.582;2023-05-07T02:20:45;14.70;99.90
21678;DHT22;11000;50.360;7.582;2023-05-07T02:23:05;14.70;99.90
21678;DHT22;11000;50.360;7.582;2023-05-07T02:25:26;14.80;99.90
21678;DHT22;11000;50.360;7.582;2023-05-07T02:27:46;14.70;99.90
21678;DHT22;11000;50.360;7.582;2023-05-07T02:30:07;14.80;99.90
21678;DHT22;11000;50.360;7.582;2023-05-07T02:32:28;14.70;99.90
21678;DHT22;11000;50.360;7.582;2023-05-07T02:34:50;14.80;99.90
21678;DHT22;11000;50.360;7.582;2023-05-07T02:37:11;14.70;99.90
21678;DHT22;11000;50.360;7.582;2023-05-07T02:39:31;14.70;99.90
21678;DHT22;11000;50.360;7.582;2023-05-07T02:41:52;14.70;99.90
21678;DHT22;11000;50.360;7.582;2023-05-07T02:44:12;14.70;99.90
21678;DHT22;11000;50.360;7.582;2023-05-07T02:46:33;14.60;99.90
21678;DHT22;11000;50.360;7.582;2023-05-07T02:48:53;14.50;99.90
21678;DHT22;11000;50.360;7.582;2023-05-07T02:51:14;14.40;99.90
21678;DHT22;11000;50.360;7.582;2023-05-07T02:53:34;14.40;99.90
21678;DHT22;11000;50.360;7.582;2023-05-07T02:55:56;14.40;99.90
21678;DHT22;11000;50.360;7.582;2023-05-07T02:58:17;14.40;99.90
21678;DHT22;11000;50.360;7.582;2023-05-07T03:00:37;14.30;99.90
21678;DHT22;11000;50.360;7.582;2023-05-07T03:02:58;14.30;99.90
21678;DHT22;11000;50.360;7.582;2023-05-07T03:05:18;14.30;99.90
21678;DHT22;11000;50.360;7.582;2023-05-07T03:07:39;14.30;99.90
21678;DHT22;11000;50.360;7.582;2023-05-07T03:09:59;14.30;99.90
21678;DHT22;11000;50.360;7.582;2023-05-07T03:12:20;14.40;99.90
21678;DHT22;11000;50.360;7.582;2023-05-07T03:14:41;14.40;99.90
21678;DHT22;11000;50.360;7.582;2023-05-07T03:17:01;14.40;99.90
21678;DHT22;11000;50.360;7.582;2023-05-07T03:19:22;14.40;99.90
21678;DHT22;11000;50.360;7.582;2023-05-07T03:21:43;14.30;99.90
21678;DHT22;11000;50.360;7.582;2023-05-07T03:24:03;14.40;99.90
21678;DHT22;11000;50.360;7.582;2023-05-07T03:26:24;14.30;99.90
21678;DHT22;11000;50.360;7.582;2023-05-07T03:28:45;14.30;99.90
21678;DHT22;11000;50.360;7.582;2023-05-07T03:31:06;14.30;99.90
21678;DHT22;11000;50.360;7.582;2023-05-07T03:33:26;14.30;99.90
21678;DHT22;11000;50.360;7.582;2023-05-07T03:35:47;14.30;99.90
21678;DHT22;11000;50.360;7.582;2023-05-07T03:38:08;14.20;99.90
21678;DHT22;11000;50.360;7.582;2023-05-07T03:40:28;14.20;99.90
21678;DHT22;11000;50.360;7.582;2023-05-07T03:42:49;14.20;99.90
21678;DHT22;11000;50.360;7.582;2023-05-07T03:45:09;14.20;99.90
21678;DHT22;11000;50.360;7.582;2023-05-07T03:47:30;14.30;99.90
21678;DHT22;11000;50.360;7.582;2023-05-07T03:49:50;14.30;99.90
21678;DHT22;11000;50.360;7.582;2023-05-07T03:52:13;14.30;99.90
21678;DHT22;11000;50.360;7.582;2023-05-07T03:54:34;14.30;99.90
21678;DHT22;11000;50.360;7.582;2023-05-07T03:56:54;14.30;99.90
21678;DHT22;11000;50.360;7.582;2023-05-07T03:59:15;14.20;99.90
21678;DHT22;11000;50.360;7.582;2023-05-07T04:01:35;14.20;99.90
21678;DHT22;11000;50.360;7.582;2023-05-07T04:03:56;14.20;99.90
21678;DHT22;11000;50.360;7.582;2023-05-07T04:06:16;14.30;99.90
21678;DHT22;11000;50.360;7.582;2023-05-07T04:08:41;14.30;99.90
21678;DHT22;11000;50.360;7.582;2023-05-07T04:11:01;14.30;99.90
21678;DHT22;11000;50.360;7.582;2023-05-07T04:13:22;14.30;99.90
21678;DHT22;11000;50.360;7.582;2023-05-07T04:15:42;14.30;99.90
21678;DHT22;11000;50.360;7.582;2023-05-07T04:18:03;14.40;99.90
21678;DHT22;11000;50.360;7.582;2023-05-07T04:20:23;14.40;99.90
21678;DHT22;11000;50.360;7.582;2023-05-07T04:22:44;14.40;99.90
21678;DHT22;11000;50.360;7.582;2023-05-07T04:25:04;14.40;99.90
21678;DHT22;11000;50.360;7.582;2023-05-07T04:27:25;14.40;99.90
21678;DHT22;11000;50.360;7.582;2023-05-07T04:29:46;14.40;99.90
21678;DHT22;11000;50.360;7.582;2023-05-07T04:32:08;14.40;99.90
21678;DHT22;11000;50.360;7.582;2023-05-07T04:34:29;14.40;99.90
21678;DHT22;11000;50.360;7.582;2023-05-07T04:36:50;14.50;99.90
21678;DHT22;11000;50.360;7.582;2023-05-07T04:39:10;14.50;99.90
21678;DHT22;11000;50.360;7.582;2023-05-07T04:41:31;14.40;99.90
21678;DHT22;11000;50.360;7.582;2023-05-07T04:43:51;14.50;99.90
21678;DHT22;11000;50.360;7.582;2023-05-07T04:46:12;14.50;99.90
21678;DHT22;11000;50.360;7.582;2023-05-07T04:48:32;14.50;99.90
21678;DHT22;11000;50.360;7.582;2023-05-07T04:50:53;14.50;99.90
21678;DHT22;11000;50.360;7.582;2023-05-07T04:53:13;14.50;99.90
21678;DHT22;11000;50.360;7.582;2023-05-07T04:55:34;14.50;99.90
21678;DHT22;11000;50.360;7.582;2023-05-07T04:57:54;14.50;99.90
21678;DHT22;11000;50.360;7.582;2023-05-07T05:00:15;14.60;99.90
21678;DHT22;11000;50.360;7.582;2023-05-07T05:02:36;14.50;99.90
21678;DHT22;11000;50.360;7.582;2023-05-07T05:04:57;14.50;99.90
21678;DHT22;11000;50.360;7.582;2023-05-07T05:07:19;14.50;99.90
21678;DHT22;11000;50.360;7.582;2023-05-07T05:09:39;14.60;99.90
21678;DHT22;11000;50.360;7.582;2023-05-07T05:12:00;14.60;99.90
21678;DHT22;11000;50.360;7.582;2023-05-07T05:14:21;14.60;99.90
21678;DHT22;11000;50.360;7.582;2023-05-07T05:16:41;14.60;99.90
21678;DHT22;11000;50.360;7.582;2023-05-07T05:19:02;14.60;99.90
21678;DHT22;11000;50.360;7.582;2023-05-07T05:21:22;14.60;99.90
21678;DHT22;11000;50.360;7.582;2023-05-07T05:23:43;14.60;99.90
21678;DHT22;11000;50.360;7.582;2023-05-07T05:26:04;14.60;99.90
21678;DHT22;11000;50.360;7.582;2023-05-07T05:28:24;14.60;99.90
21678;DHT22;11000;50.360;7.582;2023-05-07T05:30:45;14.60;99.90
21678;DHT22;11000;50.360;7.582;2023-05-07T05:33:05;14.60;99.90
21678;DHT22;11000;50.360;7.582;2023-05-07T05:35:26;14.60;99.90
21678;DHT22;11000;50.360;7.582;2023-05-07T05:37:47;14.60;99.90
21678;DHT22;11000;50.360;7.582;2023-05-07T05:40:08;14.60;99.90
21678;DHT22;11000;50.360;7.582;2023-05-07T05:42:29;14.70;99.90
21678;DHT22;11000;50.360;7.582;2023-05-07T05:44:49;14.80;99.90
21678;DHT22;11000;50.360;7.582;2023-05-07T05:47:10;15.10;99.90
21678;DHT22;11000;50.360;7.582;2023-05-07T05:49:30;15.30;99.90
21678;DHT22;11000;50.360;7.582;2023-05-07T05:51:51;15.60;99.90
21678;DHT22;11000;50.360;7.582;2023-05-07T05:54:12;15.90;99.90
21678;DHT22;11000;50.360;7.582;2023-05-07T05:56:32;16.10;99.90
21678;DHT22;11000;50.360;7.582;2023-05-07T05:58:53;15.90;99.90
21678;DHT22;11000;50.360;7.582;2023-05-07T06:01:14;16.00;99.90
21678;DHT22;11000;50.360;7.582;2023-05-07T06:03:34;16.40;99.90
21678;DHT22;11000;50.360;7.582;2023-05-07T06:05:55;16.90;99.90
21678;DHT22;11000;50.360;7.582;2023-05-07T06:08:15;17.00;99.90
21678;DHT22;11000;50.360;7.582;2023-05-07T06:10:37;17.30;99.90
21678;DHT22;11000;50.360;7.582;2023-05-07T06:12:57;17.40;99.90
21678;DHT22;11000;50.360;7.582;2023-05-07T06:15:18;17.20;99.90
21678;DHT22;11000;50.360;7.582;2023-05-07T06:17:38;17.60;99.90
21678;DHT22;11000;50.360;7.582;2023-05-07T06:19:59;17.80;99.90
21678;DHT22;11000;50.360;7.582;2023-05-07T06:22:19;17.90;99.90
21678;DHT22;11000;50.360;7.582;2023-05-07T06:24:40;17.70;99.90
21678;DHT22;11000;50.360;7.582;2023-05-07T06:27:00;17.70;99.90
21678;DHT22;11000;50.360;7.582;2023-05-07T06:29:21;17.70;99.90
21678;DHT22;11000;50.360;7.582;2023-05-07T06:31:41;17.60;99.90
21678;DHT22;11000;50.360;7.582;2023-05-07T06:34:02;17.10;99.90
21678;DHT22;11000;50.360;7.582;2023-05-07T06:36:23;17.40;99.90
21678;DHT22;11000;50.360;7.582;2023-05-07T06:38:43;17.40;99.90
21678;DHT22;11000;50.360;7.582;2023-05-07T06:41:05;17.20;99.90
21678;DHT22;11000;50.360;7.582;2023-05-07T06:43:26;17.10;99.90
21678;DHT22;11000;50.360;7.582;2023-05-07T06:45:46;17.40;99.90
21678;DHT22;11000;50.360;7.582;2023-05-07T06:48:07;17.60;99.90
21678;DHT22;11000;50.360;7.582;2023-05-07T06:50:28;17.80;99.90
21678;DHT22;11000;50.360;7.582;2023-05-07T06:52:50;17.70;99.90
21678;DHT22;11000;50.360;7.582;2023-05-07T06:55:13;17.60;99.90
21678;DHT22;11000;50.360;7.582;2023-05-07T06:57:34;17.80;99.90
21678;DHT22;11000;50.360;7.582;2023-05-07T06:59:56;17.80;99.90
21678;DHT22;11000;50.360;7.582;2023-05-07T07:02:16;17.90;99.90
21678;DHT22;11000;50.360;7.582;2023-05-07T07:04:37;18.10;99.90
21678;DHT22;11000;50.360;7.582;2023-05-07T07:06:58;18.20;99.90
21678;DHT22;11000;50.360;7.582;2023-05-07T07:09:19;18.10;99.90
21678;DHT22;11000;50.360;7.582;2023-05-07T07:11:40;18.20;99.90
21678;DHT22;11000;50.360;7.582;2023-05-07T07:14:01;18.20;99.90
21678;DHT22;11000;50.360;7.582;2023-05-07T07:16:22;18.10;99.90
21678;DHT22;11000;50.360;7.582;2023-05-07T07:18:43;17.70;99.90
21678;DHT22;11000;50.360;7.582;2023-05-07T07:21:04;17.50;99.90
21678;DHT22;11000;50.360;7.582;2023-05-07T07:23:24;17.50;99.90
21678;DHT22;11000;50.360;7.582;2023-05-07T07:25:45;17.60;99.90
21678;DHT22;11000;50.360;7.582;2023-05-07T07:28:06;17.70;99.90
21678;DHT22;11000;50.360;7.582;2023-05-07T07:30:27;17.80;99.90
21678;DHT22;11000;50.360;7.582;2023-05-07T07:32:47;17.90;99.90
21678;DHT22;11000;50.360;7.582;2023-05-07T07:35:08;18.30;99.90
21678;DHT22;11000;50.360;7.582;2023-05-07T07:37:29;18.50;99.90
21678;DHT22;11000;50.360;7.582;2023-05-07T07:39:50;18.80;99.90
21678;DHT22;11000;50.360;7.582;2023-05-07T07:42:10;19.10;99.90
21678;DHT22;11000;50.360;7.582;2023-05-07T07:44:30;19.00;99.90
21678;DHT22;11000;50.360;7.582;2023-05-07T07:46:51;19.30;99.90
21678;DHT22;11000;50.360;7.582;2023-05-07T07:49:12;19.40;99.90
21678;DHT22;11000;50.360;7.582;2023-05-07T07:51:32;19.40;99.90
21678;DHT22;11000;50.360;7.582;2023-05-07T07:53:53;19.40;99.90
21678;DHT22;11000;50.360;7.582;2023-05-07T07:56:13;19.20;99.90
21678;DHT22;11000;50.360;7.582;2023-05-07T07:58:34;19.30;99.90
21678;DHT22;11000;50.360;7.582;2023-05-07T08:00:56;19.40;99.90
21678;DHT22;11000;50.360;7.582;2023-05-07T08:03:16;19.50;99.90
21678;DHT22;11000;50.360;7.582;2023-05-07T08:05:37;19.50;99.90
21678;DHT22;11000;50.360;7.582;2023-05-07T08:07:58;19.50;99.90
21678;DHT22;11000;50.360;7.582;2023-05-07T08:10:19;19.50;99.90
21678;DHT22;11000;50.360;7.582;2023-05-07T08:12:43;19.50;99.90
21678;DHT22;11000;50.360;7.582;2023-05-07T08:15:03;19.40;99.90
21678;DHT22;11000;50.360;7.582;2023-05-07T08:17:24;19.50;99.90
21678;DHT22;11000;50.360;7.582;2023-05-07T08:19:45;19.70;99.90
21678;DHT22;11000;50.360;7.582;2023-05-07T08:22:06;20.20;99.90
21678;DHT22;11000;50.360;7.582;2023-05-07T08:24:26;20.70;99.90
21678;DHT22;11000;50.360;7.582;2023-05-07T08:26:47;21.30;99.90
21678;DHT22;11000;50.360;7.582;2023-05-07T08:29:07;20.90;99.90
21678;DHT22;11000;50.360;7.582;2023-05-07T08:31:28;21.30;99.90
21678;DHT22;11000;50.360;7.582;2023-05-07T08:33:49;21.00;99.90
21678;DHT22;11000;50.360;7.582;2023-05-07T08:36:10;21.00;99.90
21678;DHT22;11000;50.360;7.582;2023-05-07T08:38:31;21.30;99.90
21678;DHT22;11000;50.360;7.582;2023-05-07T08:40:52;21.90;99.90
21678;DHT22;11000;50.360;7.582;2023-05-07T08:43:14;21.60;99.90
21678;DHT22;11000;50.360;7.582;2023-05-07T08:45:35;21.70;99.90
21678;DHT22;11000;50.360;7.582;2023-05-07T08:48:03;21.90;99.90
21678;DHT22;11000;50.360;7.582;2023-05-07T08:50:25;22.50;99.90
21678;DHT22;11000;50.360;7.582;2023-05-07T08:52:47;22.40;99.90
21678;DHT22;11000;50.360;7.582;2023-05-07T08:55:08;22.40;99.90
21678;DHT22;11000;50.360;7.582;2023-05-07T08:57:29;22.90;99.90
21678;DHT22;11000;50.360;7.582;2023-05-07T08:59:50;23.00;99.90
21678;DHT22;11000;50.360;7.582;2023-05-07T09:02:11;22.80;99.90
21678;DHT22;11000;50.360;7.582;2023-05-07T09:04:31;23.20;99.90
21678;DHT22;11000;50.360;7.582;2023-05-07T09:06:52;23.70;99.90
21678;DHT22;11000;50.360;7.582;2023-05-07T09:09:14;23.90;99.90
21678;DHT22;11000;50.360;7.582;2023-05-07T09:11:37;23.70;99.90
21678;DHT22;11000;50.360;7.582;2023-05-07T09:13:58;23.00;99.90
21678;DHT22;11000;50.360;7.582;2023-05-07T09:16:22;22.20;99.90
21678;DHT22;11000;50.360;7.582;2023-05-07T09:18:43;22.50;99.90
21678;DHT22;11000;50.360;7.582;2023-05-07T09:21:03;22.50;99.90
21678;DHT22;11000;50.360;7.582;2023-05-07T09:23:24;22.20;99.90
21678;DHT22;11000;50.360;7.582;2023-05-07T09:25:45;21.90;99.90
21678;DHT22;11000;50.360;7.582;2023-05-07T09:28:05;22.10;99.90
21678;DHT22;11000;50.360;7.582;2023-05-07T09:30:28;22.10;99.90
21678;DHT22;11000;50.360;7.582;2023-05-07T09:32:53;22.00;99.90
21678;DHT22;11000;50.360;7.582;2023-05-07T09:35:17;22.40;99.90
21678;DHT22;11000;50.360;7.582;2023-05-07T09:37:38;23.00;99.90
21678;DHT22;11000;50.360;7.582;2023-05-07T09:39:59;22.90;99.90
21678;DHT22;11000;50.360;7.582;2023-05-07T09:42:23;22.70;99.90
21678;DHT22;11000;50.360;7.582;2023-05-07T09:44:45;22.70;99.90
21678;DHT22;11000;50.360;7.582;2023-05-07T09:47:06;22.80;99.90
21678;DHT22;11000;50.360;7.582;2023-05-07T09:49:29;23.20;99.90
21678;DHT22;11000;50.360;7.582;2023-05-07T09:51:51;23.80;99.90
21678;DHT22;11000;50.360;7.582;2023-05-07T09:54:12;23.30;99.90
21678;DHT22;11000;50.360;7.582;2023-05-07T09:56:33;23.30;99.90
21678;DHT22;11000;50.360;7.582;2023-05-07T09:58:56;23.80;99.90
21678;DHT22;11000;50.360;7.582;2023-05-07T10:01:17;24.40;99.90
21678;DHT22;11000;50.360;7.582;2023-05-07T10:03:43;23.90;99.90
21678;DHT22;11000;50.360;7.582;2023-05-07T10:06:05;24.10;99.90
21678;DHT22;11000;50.360;7.582;2023-05-07T10:08:26;24.30;99.90
21678;DHT22;11000;50.360;7.582;2023-05-07T10:10:47;24.50;99.90
21678;DHT22;11000;50.360;7.582;2023-05-07T10:13:08;24.40;99.90
21678;DHT22;11000;50.360;7.582;2023-05-07T10:15:34;24.40;99.90
21678;DHT22;11000;50.360;7.582;2023-05-07T10:17:55;24.50;99.90
21678;DHT22;11000;50.360;7.582;2023-05-07T10:20:16;24.50;99.90
21678;DHT22;11000;50.360;7.582;2023-05-07T10:22:48;24.90;99.90
21678;DHT22;11000;50.360;7.582;2023-05-07T10:25:21;24.90;99.90
21678;DHT22;11000;50.360;7.582;2023-05-07T10:27:43;24.40;99.90
21678;DHT22;11000;50.360;7.582;2023-05-07T10:32:40;24.90;99.90
21678;DHT22;11000;50.360;7.582;2023-05-07T10:35:06;25.50;99.90
21678;DHT22;11000;50.360;7.582;2023-05-07T10:37:32;25.80;99.40
21678;DHT22;11000;50.360;7.582;2023-05-07T10:39:53;26.10;98.20
21678;DHT22;11000;50.360;7.582;2023-05-07T10:42:15;26.40;98.00
21678;DHT22;11000;50.360;7.582;2023-05-07T10:44:35;27.00;94.70
21678;DHT22;11000;50.360;7.582;2023-05-07T10:47:15;26.30;93.50
21678;DHT22;11000;50.360;7.582;2023-05-07T10:52:26;26.10;98.40
21678;DHT22;11000;50.360;7.582;2023-05-07T10:54:47;26.10;99.90
21678;DHT22;11000;50.360;7.582;2023-05-07T10:57:37;25.70;96.90
21678;DHT22;11000;50.360;7.582;2023-05-07T11:00:00;25.40;97.10
21678;DHT22;11000;50.360;7.582;2023-05-07T11:02:20;25.40;97.60
21678;DHT22;11000;50.360;7.582;2023-05-07T11:04:41;25.70;99.90
21678;DHT22;11000;50.360;7.582;2023-05-07T11:07:21;26.10;95.10
21678;DHT22;11000;50.360;7.582;2023-05-07T11:10:04;25.90;95.70
21678;DHT22;11000;50.360;7.582;2023-05-07T11:14:58;26.20;95.80
21678;DHT22;11000;50.360;7.582;2023-05-07T11:17:19;26.30;96.90
21678;DHT22;11000;50.360;7.582;2023-05-07T11:19:53;25.80;94.50
21678;DHT22;11000;50.360;7.582;2023-05-07T11:24:53;25.00;99.90
21678;DHT22;11000;50.360;7.582;2023-05-07T11:27:14;24.80;99.90
21678;DHT22;11000;50.360;7.582;2023-05-07T11:29:35;24.90;99.90
21678;DHT22;11000;50.360;7.582;2023-05-07T11:31:55;25.20;99.90
21678;DHT22;11000;50.360;7.582;2023-05-07T11:34:21;25.20;99.90
21678;DHT22;11000;50.360;7.582;2023-05-07T11:36:43;24.80;99.90
21678;DHT22;11000;50.360;7.582;2023-05-07T11:39:04;24.40;99.90
21678;DHT22;11000;50.360;7.582;2023-05-07T11:41:35;24.60;99.90
21678;DHT22;11000;50.360;7.582;2023-05-07T11:43:58;23.90;99.90
21678;DHT22;11000;50.360;7.582;2023-05-07T11:46:20;24.10;99.90
21678;DHT22;11000;50.360;7.582;2023-05-07T11:48:40;23.90;99.90
21678;DHT22;11000;50.360;7.582;2023-05-07T11:51:03;24.00;99.90
21678;DHT22;11000;50.360;7.582;2023-05-07T11:53:27;24.20;99.90
21678;DHT22;11000;50.360;7.582;2023-05-07T11:55:52;24.40;99.90
21678;DHT22;11000;50.360;7.582;2023-05-07T11:58:20;24.70;99.90
21678;DHT22;11000;50.360;7.582;2023-05-07T12:00:51;24.60;99.90
21678;DHT22;11000;50.360;7.582;2023-05-07T12:03:12;24.60;99.90
21678;DHT22;11000;50.360;7.582;2023-05-07T12:05:32;24.50;99.90
21678;DHT22;11000;50.360;7.582;2023-05-07T12:07:56;24.10;99.90
21678;DHT22;11000;50.360;7.582;2023-05-07T12:10:17;23.70;99.90
21678;DHT22;11000;50.360;7.582;2023-05-07T12:12:46;23.70;99.90
21678;DHT22;11000;50.360;7.582;2023-05-07T12:15:07;23.80;99.90
21678;DHT22;11000;50.360;7.582;2023-05-07T12:17:28;24.20;99.90
21678;DHT22;11000;50.360;7.582;2023-05-07T12:19:48;24.50;99.90
21678;DHT22;11000;50.360;7.582;2023-05-07T12:22:10;24.60;99.90
21678;DHT22;11000;50.360;7.582;2023-05-07T12:24:56;24.70;99.90
21678;DHT22;11000;50.360;7.582;2023-05-07T12:27:17;24.80;99.90
21678;DHT22;11000;50.360;7.582;2023-05-07T12:29:38;24.60;99.90
21678;DHT22;11000;50.360;7.582;2023-05-07T12:32:00;24.60;99.90
21678;DHT22;11000;50.360;7.582;2023-05-07T12:34:22;24.60;99.90
21678;DHT22;11000;50.360;7.582;2023-05-07T12:36:42;24.80;99.90
21678;DHT22;11000;50.360;7.582;2023-05-07T12:39:05;25.50;99.90
21678;DHT22;11000;50.360;7.582;2023-05-07T12:41:26;26.00;99.90
21678;DHT22;11000;50.360;7.582;2023-05-07T12:43:49;26.60;99.90
21678;DHT22;11000;50.360;7.582;2023-05-07T12:46:10;26.80;92.00
21678;DHT22;11000;50.360;7.582;2023-05-07T12:48:30;26.10;98.20
21678;DHT22;11000;50.360;7.582;2023-05-07T12:50:52;26.00;95.60
21678;DHT22;11000;50.360;7.582;2023-05-07T12:53:13;26.00;97.70
21678;DHT22;11000;50.360;7.582;2023-05-07T12:55:46;25.60;99.30
21678;DHT22;11000;50.360;7.582;2023-05-07T12:58:07;25.70;99.90
21678;DHT22;11000;50.360;7.582;2023-05-07T13:00:37;25.70;98.10
21678;DHT22;11000;50.360;7.582;2023-05-07T13:02:58;26.10;98.50
21678;DHT22;11000;50.360;7.582;2023-05-07T13:05:19;26.00;99.90
21678;DHT22;11000;50.360;7.582;2023-05-07T13:07:40;25.50;98.90
21678;DHT22;11000;50.360;7.582;2023-05-07T13:10:12;25.30;99.90
21678;DHT22;11000;50.360;7.582;2023-05-07T13:12:32;25.40;99.90
21678;DHT22;11000;50.360;7.582;2023-05-07T13:14:53;25.30;98.10
21678;DHT22;11000;50.360;7.582;2023-05-07T13:17:15;25.40;99.90
21678;DHT22;11000;50.360;7.582;2023-05-07T13:19:35;25.40;99.90
21678;DHT22;11000;50.360;7.582;2023-05-07T13:21:57;25.50;99.90
21678;DHT22;11000;50.360;7.582;2023-05-07T13:24:18;26.30;99.10
21678;DHT22;11000;50.360;7.582;2023-05-07T13:26:38;26.40;94.70
21678;DHT22;11000;50.360;7.582;2023-05-07T13:28:59;26.20;95.00
21678;DHT22;11000;50.360;7.582;2023-05-07T13:31:20;26.10;99.60
21678;DHT22;11000;50.360;7.582;2023-05-07T13:33:41;25.60;98.10
21678;DHT22;11000;50.360;7.582;2023-05-07T13:36:02;24.90;99.70
21678;DHT22;11000;50.360;7.582;2023-05-07T13:38:26;24.60;99.90
21678;DHT22;11000;50.360;7.582;2023-05-07T13:40:47;24.20;99.90
21678;DHT22;11000;50.360;7.582;2023-05-07T13:43:07;24.30;99.90
21678;DHT22;11000;50.360;7.582;2023-05-07T13:45:29;24.30;99.90
21678;DHT22;11000;50.360;7.582;2023-05-07T13:47:50;24.30;99.90
21678;DHT22;11000;50.360;7.582;2023-05-07T13:50:12;24.40;99.90
21678;DHT22;11000;50.360;7.582;2023-05-07T13:52:38;24.40;99.90
21678;DHT22;11000;50.360;7.582;2023-05-07T13:55:00;24.20;99.90
21678;DHT22;11000;50.360;7.582;2023-05-07T13:57:21;24.20;99.90
21678;DHT22;11000;50.360;7.582;2023-05-07T13:59:42;23.90;99.90
21678;DHT22;11000;50.360;7.582;2023-05-07T14:02:02;23.70;99.90
21678;DHT22;11000;50.360;7.582;2023-05-07T14:04:23;23.40;99.90
21678;DHT22;11000;50.360;7.582;2023-05-07T14:06:44;23.40;99.90
21678;DHT22;11000;50.360;7.582;2023-05-07T14:09:04;23.50;99.90
21678;DHT22;11000;50.360;7.582;2023-05-07T14:11:25;23.50;99.90
21678;DHT22;11000;50.360;7.582;2023-05-07T14:13:46;23.40;99.90
21678;DHT22;11000;50.360;7.582;2023-05-07T14:16:06;23.10;99.90
21678;DHT22;11000;50.360;7.582;2023-05-07T14:18:26;22.80;99.90
21678;DHT22;11000;50.360;7.582;2023-05-07T14:20:49;22.70;99.90
21678;DHT22;11000;50.360;7.582;2023-05-07T14:23:12;22.80;99.90
21678;DHT22;11000;50.360;7.582;2023-05-07T14:25:33;22.60;99.90
21678;DHT22;11000;50.360;7.582;2023-05-07T14:27:53;22.60;99.90
21678;DHT22;11000;50.360;7.582;2023-05-07T14:30:14;22.60;99.90
21678;DHT22;11000;50.360;7.582;2023-05-07T14:32:34;22.30;99.90
21678;DHT22;11000;50.360;7.582;2023-05-07T14:34:55;22.10;99.90
21678;DHT22;11000;50.360;7.582;2023-05-07T14:37:15;22.00;99.90
21678;DHT22;11000;50.360;7.582;2023-05-07T14:39:36;22.20;99.90
21678;DHT22;11000;50.360;7.582;2023-05-07T14:41:57;22.40;99.90
21678;DHT22;11000;50.360;7.582;2023-05-07T14:44:18;22.70;99.90
21678;DHT22;11000;50.360;7.582;2023-05-07T14:46:38;23.00;99.90
21678;DHT22;11000;50.360;7.582;2023-05-07T14:48:59;23.00;99.90
21678;DHT22;11000;50.360;7.582;2023-05-07T14:51:20;23.30;99.90
21678;DHT22;11000;50.360;7.582;2023-05-07T14:53:41;23.40;99.90
21678;DHT22;11000;50.360;7.582;2023-05-07T14:56:02;23.60;99.90
21678;DHT22;11000;50.360;7.582;2023-05-07T14:58:23;23.70;99.90
21678;DHT22;11000;50.360;7.582;2023-05-07T15:00:44;23.60;99.90
21678;DHT22;11000;50.360;7.582;2023-05-07T15:03:09;23.40;99.90
21678;DHT22;11000;50.360;7.582;2023-05-07T15:05:30;23.60;99.90